FACT/CPT METAR and TAF weather

Enter ICAO airport designator
Station Type Date Time Source
FACT METAR 2022/12/08 13:00 UTC NOAA

FACT 081300Z 21012KT CAVOK 30/14 Q1012 NOSIG


Station Type Date Time Source
FACT Decoded METAR 2022/12/08 13:00 UTC NOAA

Cape Town, Cape Town International Airport, South Africa (FACT) 33-59S 018-36E 0M
Dec 08, 2022 - 08:00 AM EST / 2022.12.08 1300 UTC
Wind: from the SSW (210 degrees) at 14 MPH (12 KT):0
Visibility: greater than 7 mile(s):0
Temperature: 86 F (30 C)
Dew Point: 57 F (14 C)
Relative Humidity: 37%
Pressure (altimeter): 29.88 in. Hg (1012 hPa)
ob: FACT 081300Z 21012KT CAVOK 30/14 Q1012 NOSIG
cycle: 13

Station Type Date Time Source
FACT TAF 2022/12/08 12:10 UTC NOAA

TAF FACT 081000Z 0812/0918 18015KT CAVOK TX31/0812Z TN16/0904Z
BECMG 0816/0818 20005KT
BECMG 0900/0902 34015KT PROB30
TEMPO 0903/0906 BKN010

Example: see airport list